createdAt,value
2023-03-20T00:01:55.317Z,13.70
2023-03-20T00:07:01.959Z,14.12
2023-03-20T00:12:08.507Z,14.25
2023-03-20T00:17:15.006Z,13.53
2023-03-20T00:22:21.180Z,14.47
2023-03-20T00:27:28.239Z,13.37
2023-03-20T00:32:34.814Z,14.40
2023-03-20T00:37:41.253Z,12.07
2023-03-20T00:42:47.710Z,11.56
2023-03-20T00:47:54.440Z,10.69
2023-03-20T00:53:00.593Z,10.79
2023-03-20T00:58:07.056Z,10.42
2023-03-20T01:03:13.209Z,9.22
2023-03-20T01:08:22.619Z,8.51
2023-03-20T01:13:28.775Z,8.63
2023-03-20T01:18:34.994Z,8.65
2023-03-20T01:23:41.440Z,8.61
2023-03-20T01:28:48.209Z,9.06
2023-03-20T01:33:54.347Z,8.82
2023-03-20T01:39:00.825Z,8.49
2023-03-20T01:44:07.280Z,8.37
2023-03-20T01:49:13.759Z,8.12
2023-03-20T01:54:19.914Z,7.55
2023-03-20T01:59:26.354Z,7.38
2023-03-20T02:04:32.791Z,8.20
2023-03-20T02:09:39.310Z,6.81
2023-03-20T02:14:45.501Z,7.02
2023-03-20T02:19:51.768Z,6.92
2023-03-20T02:24:58.255Z,6.96
2023-03-20T02:30:04.704Z,7.88
2023-03-20T02:35:11.114Z,7.89
2023-03-20T02:40:17.603Z,8.09
2023-03-20T02:45:23.774Z,8.20
2023-03-20T02:50:30.264Z,9.10
2023-03-20T02:55:36.930Z,7.81
2023-03-20T03:00:42.965Z,7.87
2023-03-20T03:05:49.110Z,7.49
2023-03-20T03:10:55.609Z,11.56
2023-03-20T03:16:02.112Z,9.24
2023-03-20T03:21:08.585Z,6.89
2023-03-20T03:26:14.990Z,6.99
2023-03-20T03:31:21.480Z,7.98
2023-03-20T03:36:27.612Z,7.45
2023-03-20T03:41:34.058Z,7.58
2023-03-20T03:46:42.246Z,7.42
2023-03-20T03:51:46.484Z,9.18
2023-03-20T03:56:52.907Z,9.48
2023-03-20T04:01:59.282Z,8.35
2023-03-20T04:07:05.735Z,8.62
2023-03-20T04:12:12.039Z,11.25
2023-03-20T04:17:18.552Z,10.14
2023-03-20T04:22:24.969Z,9.80
2023-03-20T04:27:31.145Z,9.70
2023-03-20T04:32:38.407Z,9.92
2023-03-20T04:37:44.850Z,11.31
2023-03-20T04:42:51.362Z,9.87
2023-03-20T04:47:57.838Z,9.40
2023-03-20T04:53:04.333Z,9.56
2023-03-20T04:58:10.790Z,9.88
2023-03-20T05:03:17.081Z,9.94
2023-03-20T05:08:23.512Z,10.04
2023-03-20T05:13:30.062Z,10.31
2023-03-20T05:18:36.548Z,10.08
2023-03-20T05:23:43.116Z,10.24
2023-03-20T05:28:49.608Z,10.18
2023-03-20T05:33:56.077Z,11.49
2023-03-20T05:39:02.582Z,9.72
2023-03-20T05:44:09.899Z,10.15
2023-03-20T05:49:16.051Z,11.23
2023-03-20T05:54:22.355Z,9.19
2023-03-20T05:59:28.537Z,9.15
2023-03-20T06:04:34.825Z,8.91
2023-03-20T06:09:41.303Z,8.64
2023-03-20T06:14:48.262Z,8.38
2023-03-20T06:19:54.429Z,7.78
2023-03-20T06:25:00.849Z,7.73
2023-03-20T06:30:07.074Z,7.52
2023-03-20T06:35:13.307Z,7.49
2023-03-20T06:40:19.726Z,8.71
2023-03-20T06:45:26.069Z,7.28
2023-03-20T06:50:32.541Z,7.07
2023-03-20T06:55:39.131Z,7.18
2023-03-20T07:00:45.542Z,6.91
2023-03-20T07:05:52.035Z,7.12
2023-03-20T07:11:00.704Z,6.75
2023-03-20T07:16:07.214Z,6.51
2023-03-20T07:21:13.616Z,6.35
2023-03-20T07:26:20.076Z,6.48
2023-03-20T07:31:26.289Z,7.91
2023-03-20T07:36:32.813Z,7.08
2023-03-20T07:41:39.330Z,7.46
2023-03-20T07:46:45.789Z,8.04
2023-03-20T07:51:52.002Z,8.53
2023-03-20T07:56:58.576Z,8.31
2023-03-20T08:02:04.809Z,8.68
2023-03-20T08:07:11.182Z,9.48
2023-03-20T08:12:17.729Z,9.00
2023-03-20T08:17:24.116Z,9.27
2023-03-20T08:22:30.585Z,9.27
2023-03-20T08:27:37.176Z,9.00
2023-03-20T08:32:43.772Z,9.32
2023-03-20T08:37:50.371Z,9.12
2023-03-20T08:42:56.851Z,9.05
2023-03-20T08:48:03.330Z,8.65
2023-03-20T08:53:10.049Z,8.06
2023-03-20T08:58:16.335Z,8.05
2023-03-20T09:03:22.600Z,8.24
2023-03-20T09:08:29.293Z,7.60
2023-03-20T09:13:35.886Z,7.89
2023-03-20T09:18:42.348Z,8.32
2023-03-20T09:23:48.585Z,8.59
2023-03-20T09:28:55.120Z,7.74
2023-03-20T09:34:01.801Z,7.45
2023-03-20T09:39:08.480Z,7.48
2023-03-20T09:44:14.982Z,6.80
2023-03-20T09:49:21.512Z,6.91
2023-03-20T09:54:28.044Z,5.77
2023-03-20T09:59:34.317Z,5.26
2023-03-20T10:04:40.534Z,4.49
2023-03-20T10:09:46.779Z,4.91
2023-03-20T10:14:53.221Z,4.42
2023-03-20T10:19:59.745Z,4.09
2023-03-20T10:25:06.231Z,4.48
2023-03-20T10:30:12.803Z,4.66
2023-03-20T10:35:18.997Z,4.39
2023-03-20T10:40:25.880Z,4.19
2023-03-20T10:45:32.364Z,4.38
2023-03-20T10:50:38.978Z,4.19
2023-03-20T10:55:45.437Z,5.65
2023-03-20T11:00:52.203Z,4.85
2023-03-20T11:06:08.571Z,4.83
2023-03-20T11:11:05.164Z,4.72
2023-03-20T11:16:11.472Z,4.72
2023-03-20T11:21:17.946Z,4.88
2023-03-20T11:26:24.524Z,5.24
2023-03-20T11:31:31.587Z,4.79
2023-03-20T11:36:38.001Z,4.47
2023-03-20T11:41:44.601Z,4.02
2023-03-20T11:46:50.814Z,4.17
2023-03-20T11:51:57.440Z,4.47
2023-03-20T11:57:03.637Z,4.43
2023-03-20T12:02:09.964Z,4.38
2023-03-20T12:07:16.410Z,4.62
2023-03-20T12:12:22.909Z,4.56
2023-03-20T12:17:29.132Z,4.87
2023-03-20T12:22:36.260Z,4.73
2023-03-20T12:27:42.768Z,4.58
2023-03-20T12:32:49.274Z,4.60
2023-03-20T12:37:55.707Z,4.15
2023-03-20T12:43:02.201Z,3.77
2023-03-20T12:48:08.386Z,3.97
2023-03-20T12:53:15.102Z,3.70
2023-03-20T12:58:21.578Z,4.01
2023-03-20T13:03:28.080Z,3.86
2023-03-20T13:08:34.534Z,3.85
2023-03-20T13:13:41.090Z,3.83
2023-03-20T13:18:47.694Z,4.33
2023-03-20T13:23:54.056Z,4.23
2023-03-20T13:29:00.263Z,4.69
2023-03-20T13:34:06.614Z,4.13
2023-03-20T13:39:12.785Z,4.65
2023-03-20T13:44:19.434Z,4.71
2023-03-20T13:49:26.684Z,4.96
2023-03-20T13:54:33.225Z,4.57
2023-03-20T13:59:39.650Z,4.55
2023-03-20T14:04:46.175Z,4.48
2023-03-20T14:09:52.637Z,4.88
2023-03-20T14:14:59.054Z,4.70
2023-03-20T14:20:05.542Z,4.57
2023-03-20T14:25:11.721Z,4.53
2023-03-20T14:30:18.100Z,4.61
2023-03-20T14:35:24.229Z,4.44
2023-03-20T14:40:30.823Z,4.45
2023-03-20T14:45:38.361Z,4.74
2023-03-20T14:50:43.939Z,4.69
2023-03-20T14:55:50.146Z,4.57
2023-03-20T15:00:56.716Z,4.79
2023-03-20T15:06:02.986Z,4.63
2023-03-20T15:11:09.524Z,4.59
2023-03-20T15:16:16.110Z,4.62
2023-03-20T15:21:22.654Z,4.84
2023-03-20T15:26:28.915Z,5.26
2023-03-20T15:31:35.458Z,4.95
2023-03-20T15:41:46.622Z,5.12
2023-03-20T15:46:52.713Z,5.95
2023-03-20T15:51:59.080Z,5.30
2023-03-20T15:57:05.232Z,5.44
2023-03-20T16:02:12.390Z,4.96
2023-03-20T16:07:18.817Z,5.03
2023-03-20T16:12:25.343Z,4.73
2023-03-20T16:17:31.816Z,5.15
2023-03-20T16:22:38.575Z,5.32
2023-03-20T16:27:44.721Z,4.93
2023-03-20T16:32:51.205Z,4.89
2023-03-20T16:37:57.646Z,5.29
2023-03-20T16:43:04.044Z,5.18
2023-03-20T16:48:10.288Z,4.88
2023-03-20T16:53:16.864Z,4.82
2023-03-20T16:58:23.443Z,4.84
2023-03-20T17:03:29.677Z,4.82
2023-03-20T17:08:36.221Z,4.94
2023-03-20T17:13:43.124Z,5.17
2023-03-20T17:18:49.556Z,4.92
2023-03-20T17:23:56.168Z,5.02
2023-03-20T17:29:02.383Z,4.70
2023-03-20T17:34:08.933Z,4.91
2023-03-20T17:39:15.533Z,4.67
2023-03-20T17:44:21.854Z,4.58
2023-03-20T17:49:28.347Z,4.67
2023-03-20T17:54:33.901Z,4.47
2023-03-20T17:59:40.487Z,4.94
2023-03-20T18:04:47.145Z,4.70
2023-03-20T18:09:53.113Z,4.67
2023-03-20T18:14:59.599Z,4.54
2023-03-20T18:20:05.932Z,4.63
2023-03-20T18:25:12.444Z,4.60
2023-03-20T18:30:18.911Z,4.32
2023-03-20T18:35:25.349Z,4.75
2023-03-20T18:40:31.503Z,4.49
2023-03-20T18:45:38.038Z,4.50
2023-03-20T18:50:44.218Z,4.14
2023-03-20T18:55:50.615Z,4.29
2023-03-20T19:00:56.813Z,4.17
2023-03-20T19:06:03.231Z,4.58
2023-03-20T19:11:09.746Z,4.11
2023-03-20T19:16:16.323Z,4.44
2023-03-20T19:21:22.677Z,4.14
2023-03-20T19:26:29.203Z,4.33
2023-03-20T19:31:35.398Z,4.51
2023-03-20T19:36:42.258Z,4.30
2023-03-20T19:41:48.656Z,4.30
2023-03-20T19:46:55.106Z,4.57
2023-03-20T19:52:01.553Z,4.47
2023-03-20T19:57:07.926Z,4.46
2023-03-20T20:02:14.153Z,4.35
2023-03-20T20:08:06.249Z,4.50
2023-03-20T20:12:25.997Z,4.40
2023-03-20T20:17:32.414Z,4.35
2023-03-20T20:22:38.610Z,4.59
2023-03-20T20:27:45.470Z,4.81
2023-03-20T20:32:51.726Z,4.50
2023-03-20T20:38:44.925Z,4.53
2023-03-20T20:43:10.152Z,4.60
2023-03-20T20:48:09.925Z,4.40
2023-03-20T20:53:16.107Z,4.57
2023-03-20T20:58:22.354Z,4.32
2023-03-20T21:08:33.650Z,4.40
2023-03-20T21:13:39.872Z,4.50
2023-03-20T21:18:46.258Z,4.63
2023-03-20T21:23:52.446Z,4.63
2023-03-20T21:28:59.059Z,4.94
2023-03-20T21:34:05.474Z,5.37
2023-03-20T21:39:12.017Z,4.90
2023-03-20T21:44:40.642Z,6.61
2023-03-20T21:50:19.368Z,5.84
2023-03-20T21:55:21.197Z,5.86
2023-03-20T22:00:19.819Z,6.18
2023-03-20T22:05:28.417Z,5.69
2023-03-20T22:15:46.063Z,6.40
2023-03-20T22:20:58.879Z,5.32
2023-03-20T22:26:04.835Z,5.43
2023-03-20T22:31:10.625Z,5.40
2023-03-20T22:36:18.473Z,5.75
2023-03-20T22:41:24.421Z,5.97
2023-03-20T22:45:37.883Z,5.73
2023-03-20T22:50:36.743Z,5.98
2023-03-20T22:55:42.632Z,5.87
2023-03-20T23:00:49.170Z,6.26
2023-03-20T23:05:55.301Z,5.99
2023-03-20T23:11:02.707Z,5.88
2023-03-20T23:16:08.900Z,6.01
2023-03-20T23:21:15.165Z,6.45
2023-03-20T23:31:26.384Z,5.81
2023-03-20T23:36:36.946Z,5.98
2023-03-20T23:42:29.358Z,6.37
2023-03-20T23:46:47.959Z,5.29
2023-03-20T23:51:50.976Z,5.77
2023-03-20T23:56:57.181Z,5.61
